< < Back
Terminal Aerodrome Forecast


Current Version              Previous Versions:   1  2  3  4  5  6  7  8  9  

Terminal Aerodrome Forecast

591
FTUS44 KMOB 092339
TAFPNS
TAF
KPNS 092339Z 1000/1024 29012G18KT P6SM SKC
     FM100600 32008KT P6SM SKC
     FM101500 32013G20KT P6SM SKC=



Latest METAR

293
SAUS70 KWBC 100400 RRE
MTRPNS
METAR KPNS 100353Z 29004KT 10SM CLR 06/M07 A3014 RMK AO2 SLP210
T00561067


USA.gov is the U.S. government's official web portal to all federal, state and local government web resources and services.